Time;durP1;ratioP1;P1;durP2;ratioP2;P2;SDS_P1;SDS_P2;PMS_P1;PMS_P2;Temp;Humidity;BMP_temperature;BMP_pressure;BME280_temperature;BME280_humidity;BME280_pressure;Samples;Min_cycle;Max_cycle;Signal;HPM_P1;HPM_P2
2023/03/02 00:02:11;;;;;;;39.25;16.83;;;;;;;3.08;nan;101061.34;4998753;28;19944;-69
2023/03/02 00:04:45;;;;;;;31.27;15.98;;;;;;;3.00;nan;101056.16;4960687;28;20484;-69
2023/03/02 00:07:15;;;;;;;33.75;16.13;;;;;;;2.91;nan;101047.50;4982319;28;20045;-70
2023/03/02 00:09:41;;;;;;;;;;;;;;;2.92;nan;101061.31;5000056;28;20063;-70
2023/03/02 00:12:07;;;;;;;39.63;16.88;;;;;;;2.77;nan;101046.31;5001299;28;20295;-69
2023/03/02 00:14:33;;;;;;;36.35;16.40;;;;;;;2.85;nan;101061.16;4989339;28;20038;-70
2023/03/02 00:16:58;;;;;;;36.95;17.25;;;;;;;2.80;nan;101065.97;5000830;28;20041;-70
2023/03/02 00:19:24;;;;;;;42.83;17.63;;;;;;;2.67;nan;101053.44;5002456;28;20057;-69
2023/03/02 00:21:49;;;;;;;42.30;19.52;;;;;;;2.67;nan;101065.63;4981992;28;20076;-69
2023/03/02 00:24:14;;;;;;;52.08;22.55;;;;;;;2.55;nan;101039.09;5002743;28;20022;-69
2023/03/02 00:26:40;;;;;;;55.20;23.23;;;;;;;2.65;nan;101063.16;4998562;28;20041;-69
2023/03/02 00:29:06;;;;;;;43.50;19.58;;;;;;;2.66;nan;101059.63;4998680;28;20044;-69
2023/03/02 00:31:32;;;;;;;38.65;18.02;;;;;;;2.66;nan;101063.97;5001477;28;20057;-70
2023/03/02 00:33:57;;;;;;;44.13;19.08;;;;;;;2.60;nan;101054.22;4995737;28;20061;-70
2023/03/02 00:36:23;;;;;;;39.50;18.58;;;;;;;2.54;nan;101050.47;4999310;28;20034;-70
2023/03/02 00:38:51;;;;;;;40.03;19.65;;;;;;;2.58;nan;101043.16;4983208;28;20030;-70
2023/03/02 00:41:17;;;;;;;45.90;20.02;;;;;;;2.58;nan;101045.75;4998483;28;20129;-70
2023/03/02 00:43:42;;;;;;;42.72;19.77;;;;;;;2.51;nan;101032.56;5000781;28;20138;-70
2023/03/02 00:46:13;;;;;;;44.70;20.83;;;;;;;2.51;nan;101035.16;4980164;28;20475;-70
2023/03/02 00:48:39;;;;;;;47.22;21.27;;;;;;;2.54;nan;101038.28;5000698;28;20033;-70
2023/03/02 00:51:05;;;;;;;47.25;21.75;;;;;;;2.60;nan;101046.41;4978343;28;20080;-70
2023/03/02 00:53:32;;;;;;;44.00;20.60;;;;;;;2.52;nan;101031.59;4999887;28;20034;-70
2023/03/02 00:55:57;;;;;;;44.47;20.63;;;;;;;2.58;nan;101041.38;4980768;28;20950;-70
2023/03/02 00:58:25;;;;;;;40.63;19.70;;;;;;;2.55;nan;101036.50;4997053;28;20117;-70
2023/03/02 01:00:50;;;;;;;47.38;19.38;;;;;;;2.57;nan;101037.16;4998677;28;20034;-70
2023/03/02 01:03:16;;;;;;;43.85;20.30;;;;;;;2.58;nan;101032.75;4998820;28;20232;-69
2023/03/02 01:05:41;;;;;;;47.97;21.20;;;;;;;2.55;nan;101028.69;4993797;28;20022;-70
2023/03/02 01:08:06;;;;;;;50.80;21.20;;;;;;;2.52;nan;101023.81;4999715;28;20518;-70
2023/03/02 01:10:32;;;;;;;42.63;20.42;;;;;;;2.52;nan;101021.22;4981484;28;20068;-68
2023/03/02 01:12:58;;;;;;;45.00;20.52;;;;;;;2.52;nan;101032.41;4998425;28;20118;-68
2023/03/02 01:15:23;;;;;;;41.70;20.20;;;;;;;2.48;nan;101012.09;4999551;28;20022;-67
2023/03/02 01:17:48;;;;;;;42.35;19.58;;;;;;;2.47;nan;101006.09;4998961;28;20034;-67
2023/03/02 01:20:15;;;;;;;42.92;21.70;;;;;;;2.58;nan;101014.56;4997364;28;20053;-67
2023/03/02 01:22:42;;;;;;;47.90;21.13;;;;;;;2.53;nan;101002.84;4999730;28;20100;-67
2023/03/02 01:25:07;;;;;;;46.83;20.83;;;;;;;2.61;nan;101006.44;4997987;28;20038;-67
2023/03/02 01:27:33;;;;;;;50.58;22.15;;;;;;;2.61;nan;100994.28;4983236;28;20061;-67
2023/03/02 01:29:58;;;;;;;52.03;22.92;;;;;;;2.64;nan;100996.56;4999295;28;20033;-68
2023/03/02 01:32:23;;;;;;;46.38;21.73;;;;;;;2.65;nan;100994.75;4997800;28;20034;-67
2023/03/02 01:34:49;;;;;;;47.00;21.55;;;;;;;2.66;nan;100991.16;4995843;28;20026;-66
2023/03/02 01:37:14;;;;;;;48.38;21.38;;;;;;;2.71;nan;100996.75;4994380;28;20500;-67
2023/03/02 01:39:40;;;;;;;52.47;21.10;;;;;;;2.74;nan;100999.81;4972437;28;20030;-68
2023/03/02 01:42:05;;;;;;;51.67;22.65;;;;;;;2.82;nan;101000.81;4980905;28;20045;-67
2023/03/02 01:44:36;;;;;;;51.95;21.80;;;;;;;;;;4998535;28;20034;-65
2023/03/02 01:47:12;;;;;;;47.30;21.70;;;;;;;;;;4979608;28;20029;-66
2023/03/02 01:49:40;;;;;;;47.13;20.05;;;;;;;;;;4996540;28;20495;-66
2023/03/02 01:52:05;;;;;;;48.88;21.17;;;;;;;;;;4997751;28;20038;-67
2023/03/02 01:54:30;;;;;;;52.27;22.40;;;;;;;2.82;nan;100952.22;4994622;28;20451;-66
2023/03/02 01:56:59;;;;;;;49.97;20.42;;;;;;;2.94;nan;100968.31;4977575;28;20033;-66
2023/03/02 01:59:28;;;;;;;45.90;19.75;;;;;;;2.97;nan;100973.22;4998164;28;20033;-66
2023/03/02 02:01:57;;;;;;;45.30;20.57;;;;;;;2.90;nan;100956.63;4999495;28;20116;-67
2023/03/02 02:04:25;;;;;;;49.22;20.38;;;;;;;2.94;nan;100957.91;4998709;28;20606;-67
2023/03/02 02:06:58;;;;;;;43.35;20.63;;;;;;;3.03;nan;100971.75;4999608;28;20125;-68
2023/03/02 02:09:25;;;;;;;41.22;20.65;;;;;;;2.93;nan;100959.72;5000956;28;20030;-67
2023/03/02 02:11:51;;;;;;;45.80;20.25;;;;;;;2.92;nan;100965.06;4996674;28;20469;-66
2023/03/02 02:14:17;;;;;;;42.85;21.50;;;;;;;2.83;nan;100945.25;5000066;28;20065;-67
2023/03/02 02:16:42;;;;;;;42.95;20.98;;;;;;;2.71;nan;100931.72;4997465;28;20027;-67
2023/03/02 02:19:44;;;;;;;42.78;21.75;;;;;;;2.89;nan;100948.00;5000290;28;20041;-68
2023/03/02 02:22:10;;;;;;;45.70;19.70;;;;;;;2.80;nan;100950.75;4998934;28;20122;-67
2023/03/02 02:24:48;;;;;;;44.95;20.17;;;;;;;2.79;nan;100954.31;4986734;28;20691;-66
2023/03/02 02:27:13;;;;;;;43.75;19.90;;;;;;;2.68;nan;100945.88;4998058;28;20084;-67
2023/03/02 02:29:50;;;;;;;45.20;19.45;;;;;;;2.66;nan;100940.00;4997075;28;20030;-66
2023/03/02 02:32:16;;;;;;;41.60;19.45;;;;;;;2.72;nan;100936.75;4999218;28;20026;-66
2023/03/02 02:34:51;;;;;;;42.63;19.50;;;;;;;2.71;nan;100931.72;5000960;28;20029;-69
2023/03/02 02:37:40;;;;;;;45.90;19.35;;;;;;;2.72;nan;100926.34;5001481;28;20068;-69
2023/03/02 02:40:13;;;;;;;39.65;18.75;;;;;;;2.83;nan;100942.63;4999475;28;20543;-69
2023/03/02 02:42:44;;;;;;;42.35;18.60;;;;;;;2.82;nan;100930.59;5004104;28;20121;-70
2023/03/02 02:45:26;;;;;;;42.63;18.33;;;;;;;2.82;nan;100922.78;5004774;28;20500;-69
2023/03/02 02:47:54;;;;;;;47.47;19.05;;;;;;;2.87;nan;100923.13;5001504;28;20082;-69
2023/03/02 02:50:25;;;;;;;48.63;20.70;;;;;;;2.74;nan;100908.81;5003381;28;20062;-69
2023/03/02 02:53:05;;;;;;;48.83;20.77;;;;;;;2.77;nan;100905.88;5004999;28;20118;-69
2023/03/02 02:55:32;;;;;;;46.88;20.70;;;;;;;2.85;nan;100917.25;5004536;28;20483;-69
2023/03/02 02:58:01;;;;;;;47.83;20.70;;;;;;;2.72;nan;100889.13;4991051;28;20072;-69
2023/03/02 03:00:26;;;;;;;52.42;21.10;;;;;;;2.84;nan;100910.44;4983618;28;20041;-69
2023/03/02 03:03:03;;;;;;;47.47;22.02;;;;;;;2.81;nan;100905.56;4989736;28;20034;-69
2023/03/02 03:05:29;;;;;;;50.17;22.40;;;;;;;2.69;nan;100903.28;5003303;28;20168;-69
2023/03/02 03:08:08;;;;;;;48.85;21.00;;;;;;;2.74;nan;100911.41;5000489;28;20042;-69
2023/03/02 03:10:38;;;;;;;47.75;21.58;;;;;;;2.75;nan;100914.81;5003108;28;20022;-69
2023/03/02 03:13:06;;;;;;;48.70;21.40;;;;;;;2.74;nan;100910.59;5001679;28;20042;-68
2023/03/02 03:15:32;;;;;;;53.00;21.20;;;;;;;2.70;nan;100894.50;4999699;28;20520;-66
2023/03/02 03:17:58;;;;;;;50.78;21.83;;;;;;;2.81;nan;100910.78;5002255;28;20041;-67
2023/03/02 03:20:25;;;;;;;48.97;22.02;;;;;;;2.80;nan;100907.34;4999517;28;20030;-65
2023/03/02 03:22:54;;;;;;;57.30;21.35;;;;;;;2.74;nan;100901.00;5001053;28;20026;-66
2023/03/02 03:25:23;;;;;;;43.53;21.65;;;;;;;2.73;nan;100899.38;5001581;28;20105;-67
2023/03/02 03:27:49;;;;;;;47.33;21.50;;;;;;;2.72;nan;100887.34;4999616;28;20113;-66
2023/03/02 03:30:15;;;;;;;51.58;22.05;;;;;;;2.85;nan;100901.66;5001439;28;20105;-65
2023/03/02 03:32:40;;;;;;;58.58;22.85;;;;;;;2.89;nan;100897.75;5003974;28;20036;-68
2023/03/02 03:35:11;;;;;;;53.35;23.15;;;;;;;2.97;nan;100900.38;4997404;28;20480;-68
2023/03/02 03:37:39;;;;;;;48.67;21.85;;;;;;;2.97;nan;100889.97;4998676;28;20415;-69
2023/03/02 03:40:08;;;;;;;45.42;21.95;;;;;;;3.00;nan;100896.63;5003074;28;20037;-69
2023/03/02 03:42:34;;;;;;;51.30;21.15;;;;;;;2.90;nan;100876.00;4998846;28;20484;-69
2023/03/02 03:45:00;;;;;;;43.85;21.73;;;;;;;2.91;nan;100885.41;5002066;28;20029;-70
2023/03/02 03:47:25;;;;;;;48.95;20.83;;;;;;;3.00;nan;100900.03;4984259;28;20028;-70
2023/03/02 03:49:51;;;;;;;47.78;20.17;;;;;;;2.99;nan;100890.59;4999596;28;20065;-68
2023/03/02 03:52:16;;;;;;;42.92;19.38;;;;;;;2.98;nan;100897.59;5000505;28;20038;-69
2023/03/02 03:54:41;;;;;;;47.80;19.27;;;;;;;2.92;nan;100893.06;4993105;28;20068;-69
2023/03/02 03:57:07;;;;;;;48.25;20.02;;;;;;;2.91;nan;100888.00;5002678;28;20030;-69
2023/03/02 03:59:32;;;;;;;43.40;19.92;;;;;;;2.75;nan;100875.81;4989890;28;20041;-69
2023/03/02 04:02:00;;;;;;;47.88;20.17;;;;;;;2.83;nan;100903.63;5002666;28;20030;-68
2023/03/02 04:04:29;;;;;;;47.85;21.80;;;;;;;2.75;nan;100894.84;4981734;28;20112;-68
2023/03/02 04:06:55;;;;;;;51.00;24.27;;;;;;;2.75;nan;100894.00;4998819;28;20493;-69
2023/03/02 04:09:22;;;;;;;49.75;22.33;;;;;;;2.73;nan;100893.34;4999282;28;20033;-69
2023/03/02 04:11:50;;;;;;;44.97;20.38;;;;;;;2.77;nan;100905.88;4998286;28;20022;-68
2023/03/02 04:14:17;;;;;;;48.50;21.10;;;;;;;2.76;nan;100904.25;5000105;28;20042;-69
2023/03/02 04:16:43;;;;;;;45.13;20.98;;;;;;;2.74;nan;100900.19;4995475;28;20022;-68
2023/03/02 04:19:09;;;;;;;47.15;21.17;;;;;;;2.73;nan;100896.78;5000966;28;20027;-69
2023/03/02 04:21:40;;;;;;;38.72;18.90;;;;;;;2.72;nan;100896.94;4982490;28;20128;-68
2023/03/02 04:24:06;;;;;;;45.13;18.42;;;;;;;2.72;nan;100891.75;4998246;28;20034;-69
2023/03/02 04:26:32;;;;;;;40.05;18.08;;;;;;;2.73;nan;100890.75;4988521;28;20021;-69
2023/03/02 04:28:58;;;;;;;49.65;19.92;;;;;;;2.72;nan;100884.75;5000935;28;20065;-69
2023/03/02 04:31:23;;;;;;;39.63;18.35;;;;;;;2.64;nan;100878.75;5003246;28;20052;-70
2023/03/02 04:33:49;;;;;;;46.10;18.52;;;;;;;2.74;nan;100885.41;5006036;28;20057;-69
2023/03/02 04:36:14;;;;;;;40.55;18.30;;;;;;;2.63;nan;100871.91;5004593;28;20022;-70
2023/03/02 04:38:40;;;;;;;38.97;17.52;;;;;;;2.78;nan;100891.09;5002614;28;20034;-69
2023/03/02 04:41:05;;;;;;;44.30;18.77;;;;;;;2.77;nan;100890.28;5000670;28;20540;-70
2023/03/02 04:43:31;;;;;;;43.00;18.77;;;;;;;2.68;nan;100878.25;5000579;28;20026;-69
2023/03/02 04:45:57;;;;;;;41.78;17.92;;;;;;;2.71;nan;100890.13;5001531;28;20452;-70
2023/03/02 04:48:22;;;;;;;40.30;18.10;;;;;;;2.79;nan;100894.50;5001658;28;20034;-69
2023/03/02 04:50:48;;;;;;;42.33;17.40;;;;;;;2.71;nan;100890.94;5000426;28;20089;-69
2023/03/02 04:53:14;;;;;;;37.70;17.27;;;;;;;2.61;nan;100885.06;5001306;28;20028;-69
2023/03/02 04:55:40;;;;;;;33.92;15.68;;;;;;;2.61;nan;100879.88;4997819;28;20022;-69
2023/03/02 04:58:06;;;;;;;40.00;17.38;;;;;;;2.70;nan;100891.09;4998944;28;20079;-69
2023/03/02 05:00:34;;;;;;;38.05;16.27;;;;;;;2.67;nan;100892.22;5002481;28;20037;-68
2023/03/02 05:03:00;;;;;;;36.85;15.85;;;;;;;2.69;nan;100903.28;4997116;28;20128;-69
2023/03/02 05:05:27;;;;;;;37.00;16.38;;;;;;;2.67;nan;100907.81;5000264;28;20165;-69
2023/03/02 05:07:53;;;;;;;34.22;15.18;;;;;;;2.57;nan;100888.16;5000773;28;20056;-69
2023/03/02 05:10:19;;;;;;;35.05;16.52;;;;;;;2.60;nan;100898.22;4997647;28;20065;-69
2023/03/02 05:12:57;;;;;;;33.35;15.68;;;;;;;2.55;nan;100894.31;5002164;28;20029;-70
2023/03/02 05:15:24;;;;;;;35.72;15.77;;;;;;;2.59;nan;100905.22;5001955;28;20036;-69
2023/03/02 05:17:50;;;;;;;40.42;17.20;;;;;;;2.49;nan;100897.56;4982923;28;20026;-70
2023/03/02 05:20:16;;;;;;;44.10;16.90;;;;;;;2.55;nan;100904.72;4981922;28;20030;-70
2023/03/02 05:22:41;;;;;;;39.95;16.70;;;;;;;2.53;nan;100903.25;5000570;28;20037;-69
2023/03/02 05:25:07;;;;;;;35.92;15.48;;;;;;;2.42;nan;100888.78;5002295;28;20033;-70
2023/03/02 05:27:33;;;;;;;36.30;16.55;;;;;;;2.50;nan;100911.38;4999888;28;20026;-68
2023/03/02 05:29:58;;;;;;;35.15;16.50;;;;;;;2.54;nan;100908.28;4999215;28;20032;-67
2023/03/02 05:32:23;;;;;;;35.20;16.20;;;;;;;2.50;nan;100900.97;4982872;28;20036;-69
2023/03/02 05:34:49;;;;;;;33.05;15.65;;;;;;;2.49;nan;100909.72;5000841;28;20037;-70
2023/03/02 05:37:14;;;;;;;39.50;15.48;;;;;;;2.46;nan;100894.47;4989653;28;20056;-69
2023/03/02 05:39:40;;;;;;;34.83;15.50;;;;;;;2.45;nan;100895.44;5001723;28;20026;-68
2023/03/02 05:42:05;;;;;;;34.72;14.43;;;;;;;2.49;nan;100910.56;5002053;28;20082;-69
2023/03/02 05:44:31;;;;;;;34.95;15.32;;;;;;;2.47;nan;100909.91;4983487;28;20037;-69
2023/03/02 05:46:57;;;;;;;37.75;15.70;;;;;;;2.52;nan;100923.22;4979827;28;20046;-69
2023/03/02 05:49:22;;;;;;;30.27;14.40;;;;;;;2.52;nan;100919.81;4997736;28;20026;-69
2023/03/02 05:51:48;;;;;;;37.05;15.43;;;;;;;2.59;nan;100933.00;4998560;28;20097;-69
2023/03/02 05:54:14;;;;;;;38.08;16.08;;;;;;;2.53;nan;100930.03;4998983;28;20037;-69
2023/03/02 05:56:40;;;;;;;38.00;15.35;;;;;;;2.47;nan;100917.69;4999674;28;20025;-70
2023/03/02 05:59:06;;;;;;;45.75;17.05;;;;;;;2.60;nan;100932.03;4999385;28;20026;-70
2023/03/02 06:01:32;;;;;;;45.42;19.42;;;;;;;2.62;nan;100938.69;4998569;28;20018;-70
2023/03/02 06:03:57;;;;;;;41.70;17.08;;;;;;;2.64;nan;100941.94;4998695;28;20041;-69
2023/03/02 06:06:23;;;;;;;42.72;16.45;;;;;;;2.71;nan;100947.34;4995891;28;20033;-70
2023/03/02 06:08:48;;;;;;;46.55;18.23;;;;;;;2.74;nan;100949.59;4998019;28;20026;-70
2023/03/02 06:11:13;;;;;;;38.92;18.88;;;;;;;2.71;nan;100945.53;4970674;28;20018;-69
2023/03/02 06:13:39;;;;;;;43.97;17.10;;;;;;;2.83;nan;100953.03;4999803;28;20036;-69
2023/03/02 06:16:04;;;;;;;37.20;14.43;;;;;;;2.79;nan;100934.34;5001905;28;20404;-69
2023/03/02 06:18:30;;;;;;;34.88;15.18;;;;;;;2.85;nan;100951.06;4978389;28;20036;-69
2023/03/02 06:20:55;;;;;;;42.78;16.48;;;;;;;2.89;nan;100954.97;4996974;28;20116;-70
2023/03/02 06:23:21;;;;;;;43.08;17.45;;;;;;;2.81;nan;100932.38;4998507;28;20022;-69
2023/03/02 06:25:47;;;;;;;39.03;16.23;;;;;;;2.92;nan;100944.25;4980438;28;20038;-69
2023/03/02 06:28:15;;;;;;;39.75;16.70;;;;;;;3.02;nan;100957.94;4979381;28;20061;-71
2023/03/02 06:30:40;;;;;;;36.33;15.48;;;;;;;2.95;nan;100929.16;4999752;28;20021;-75
2023/03/02 06:33:06;;;;;;;37.08;15.65;;;;;;;3.12;nan;100947.38;4995615;28;20088;-73
2023/03/02 06:35:32;;;;;;;32.60;14.73;;;;;;;3.14;nan;100945.44;4986497;28;20119;-74
2023/03/02 06:37:57;;;;;;;37.70;14.70;;;;;;;3.26;nan;100961.53;5002043;28;20034;-74
2023/03/02 06:40:23;;;;;;;34.42;15.60;;;;;;;3.31;nan;100956.66;4998650;28;20056;-73
2023/03/02 06:42:48;;;;;;;38.15;15.27;;;;;;;3.31;nan;100956.66;5002111;28;20058;-74
2023/03/02 06:45:14;;;;;;;36.30;14.95;;;;;;;3.34;nan;100957.13;4998755;28;20045;-73
2023/03/02 06:47:39;;;;;;;32.17;13.88;;;;;;;;;;4996710;28;20028;-73
2023/03/02 06:50:04;;;;;;;36.23;14.73;;;;;;;;;;4997637;28;20092;-74
2023/03/02 06:52:30;;;;;;;36.38;15.25;;;;;;;;;;4998106;28;20347;-73
2023/03/02 06:54:55;;;;;;;32.37;15.70;;;;;;;;;;4999016;28;20121;-74
2023/03/02 06:57:20;;;;;;;34.37;13.73;;;;;;;3.55;nan;100958.41;4977155;28;20650;-74
2023/03/02 06:59:46;;;;;;;30.77;14.68;;;;;;;3.53;nan;100961.19;4997540;28;20102;-73
2023/03/02 07:02:11;;;;;;;36.90;15.80;;;;;;;3.65;nan;100968.66;4995020;28;20064;-74
2023/03/02 07:04:37;;;;;;;35.30;14.90;;;;;;;3.67;nan;100964.09;4980483;28;20531;-73
2023/03/02 07:07:03;;;;;;;37.83;15.52;;;;;;;3.79;nan;100974.00;4996212;28;20096;-73
2023/03/02 07:09:29;;;;;;;36.42;15.50;;;;;;;3.80;nan;100964.38;4978194;28;20026;-73
2023/03/02 07:11:55;;;;;;;33.47;14.55;;;;;;;3.86;nan;100963.72;4997146;28;20113;-74
2023/03/02 07:14:21;;;;;;;35.03;14.65;;;;;;;3.89;nan;100966.00;5000133;28;20143;-73
2023/03/02 07:16:46;;;;;;;30.30;13.98;;;;;;;3.98;nan;100983.22;4997676;28;20464;-73
2023/03/02 07:19:12;;;;;;;27.80;14.27;;;;;;;4.01;nan;100982.88;5001228;28;20025;-73
2023/03/02 07:21:38;;;;;;;32.63;14.00;;;;;;;4.05;nan;100978.97;4982926;28;20021;-72
2023/03/02 07:24:04;;;;;;;31.77;13.82;;;;;;;3.94;nan;100955.88;4999448;28;20412;-73
2023/03/02 07:26:29;;;;;;;32.35;15.52;;;;;;;4.13;nan;100972.13;4985869;28;20029;-74
2023/03/02 07:28:57;;;;;;;32.85;15.30;;;;;;;4.21;nan;100975.53;4999498;28;20038;-73
2023/03/02 07:31:23;;;;;;;34.08;14.68;;;;;;;4.22;nan;100973.72;4999195;28;20392;-74
2023/03/02 07:33:48;;;;;;;27.98;13.65;;;;;;;4.25;nan;100973.38;5001797;28;20030;-73
2023/03/02 07:36:13;;;;;;;34.55;14.45;;;;;;;4.35;nan;100981.78;4984654;28;20443;-75
2023/03/02 07:38:39;;;;;;;26.13;13.18;;;;;;;4.38;nan;100985.84;5000427;28;20034;-72
2023/03/02 07:41:06;;;;;;;31.27;14.88;;;;;;;4.43;nan;100997.41;4999421;28;20084;-73
2023/03/02 07:43:34;;;;;;;26.73;13.90;;;;;;;4.43;nan;100988.75;4990983;28;20472;-73
2023/03/02 07:45:59;;;;;;;28.85;14.50;;;;;;;4.41;nan;100986.34;5002222;28;20085;-73
2023/03/02 07:48:25;;;;;;;31.42;14.20;;;;;;;4.46;nan;100988.44;4981351;28;20030;-73
2023/03/02 07:50:50;;;;;;;30.77;15.13;;;;;;;4.55;nan;101003.06;4984542;28;20479;-74
2023/03/02 07:53:15;;;;;;;29.30;14.38;;;;;;;4.60;nan;100992.94;5002670;28;20038;-73
2023/03/02 07:55:41;;;;;;;30.90;14.13;;;;;;;4.74;nan;101014.06;5001454;28;20563;-73
2023/03/02 07:58:07;;;;;;;35.80;15.73;;;;;;;4.81;nan;101005.38;4996387;28;20133;-73
2023/03/02 08:00:33;;;;;;;27.77;13.60;;;;;;;4.90;nan;101011.34;4980064;28;20084;-73
2023/03/02 08:02:58;;;;;;;30.38;13.65;;;;;;;4.84;nan;100992.00;4997708;28;20485;-71
2023/03/02 08:05:23;;;;;;;30.50;14.50;;;;;;;4.92;nan;100987.72;4999414;28;20485;-70
2023/03/02 08:07:49;;;;;;;26.08;13.63;;;;;;;5.03;nan;100987.31;4983261;28;20054;-70
2023/03/02 08:10:14;;;;;;;33.42;13.88;;;;;;;5.03;nan;100985.50;4989772;28;20041;-72
2023/03/02 08:12:41;;;;;;;34.25;14.32;;;;;;;5.12;nan;100991.47;5000924;28;20021;-74
2023/03/02 08:15:07;;;;;;;36.33;14.65;;;;;;;;;;4998554;28;20029;-74
2023/03/02 08:17:32;;;;;;;37.00;16.10;;;;;;;;;;5002188;28;20071;-74
2023/03/02 08:19:58;;;;;;;31.00;14.90;;;;;;;5.31;nan;100995.41;5003635;28;20041;-73
2023/03/02 08:22:23;;;;;;;31.95;15.00;;;;;;;;;;4998034;28;20101;-74
2023/03/02 08:24:48;;;;;;;31.10;14.90;;;;;;;;;;5002823;28;20061;-75
2023/03/02 08:27:14;;;;;;;36.35;17.52;;;;;;;;;;4999563;28;20287;-73
2023/03/02 08:29:39;;;;;;;33.10;15.88;;;;;;;;;;4999413;28;20068;-72
2023/03/02 08:32:05;;;;;;;29.33;15.43;;;;;;;;;;4981349;28;20057;-71
2023/03/02 08:34:30;;;;;;;36.07;16.33;;;;;;;;;;5001360;28;20125;-73
2023/03/02 08:36:55;;;;;;;38.40;16.60;;;;;;;;;;4984444;28;20038;-73
2023/03/02 08:39:22;;;;;;;36.88;15.70;;;;;;;;;;5000148;28;20291;-73
2023/03/02 08:41:51;;;;;;;34.92;14.88;;;;;;;;;;5000384;28;20034;-72
2023/03/02 08:44:16;;;;;;;33.85;16.73;;;;;;;5.65;nan;100976.69;4979758;28;20038;-73
2023/03/02 08:46:42;;;;;;;37.35;16.25;;;;;;;5.74;nan;100980.81;5000699;28;20052;-73
2023/03/02 08:49:07;;;;;;;37.25;17.52;;;;;;;5.87;nan;100987.25;4980252;28;20467;-73
2023/03/02 08:51:33;;;;;;;32.00;17.08;;;;;;;5.84;nan;100971.91;4997229;28;20492;-72
2023/03/02 08:53:58;;;;;;;34.67;17.83;;;;;;;5.92;nan;100971.84;4980825;28;20026;-72
2023/03/02 08:56:32;;;;;;;40.70;17.50;;;;;;;6.06;nan;100986.75;4999987;28;20498;-71
2023/03/02 08:59:01;;;;;;;32.30;16.33;;;;;;;6.11;nan;100994.84;4998256;28;20033;-72
2023/03/02 09:01:31;;;;;;;32.38;15.63;;;;;;;6.18;nan;100989.72;4996397;28;20042;-71
2023/03/02 09:03:58;;;;;;;33.05;16.77;;;;;;;6.21;nan;100984.13;5000881;28;20495;-71
2023/03/02 09:06:24;;;;;;;30.92;15.05;;;;;;;6.27;nan;100983.38;5000487;28;20038;-74
2023/03/02 09:08:50;;;;;;;38.10;16.70;;;;;;;6.16;nan;100963.75;4982768;28;20049;-72
2023/03/02 09:11:15;;;;;;;32.88;15.30;;;;;;;6.41;nan;100994.00;5000774;28;20057;-71
2023/03/02 09:13:41;;;;;;;27.98;14.82;;;;;;;6.43;nan;100994.66;4988700;28;20056;-73
2023/03/02 09:16:07;;;;;;;28.02;13.15;;;;;;;6.43;nan;100992.03;4989361;28;20034;-72
2023/03/02 09:18:34;;;;;;;24.40;13.50;;;;;;;6.54;nan;101002.03;4999268;28;20476;-71
2023/03/02 09:21:00;;;;;;;29.45;13.57;;;;;;;6.58;nan;100998.88;5001314;28;20030;-72
2023/03/02 09:23:26;;;;;;;28.35;13.82;;;;;;;6.57;nan;100997.22;5002283;28;20041;-71
2023/03/02 09:25:52;;;;;;;28.20;13.98;;;;;;;6.69;nan;100996.75;4980994;28;20026;-70
2023/03/02 09:28:20;;;;;;;30.85;14.52;;;;;;;6.73;nan;101001.44;4989591;28;20022;-70
2023/03/02 09:31:12;;;;;;;22.48;12.40;;;;;;;6.78;nan;101006.13;4997622;28;20018;-69
2023/03/02 09:33:38;;;;;;;24.75;12.63;;;;;;;6.79;nan;100999.88;4979841;28;20128;-70
2023/03/02 09:36:08;;;;;;;22.42;12.27;;;;;;;6.86;nan;100999.97;5001345;28;20030;-70
2023/03/02 09:38:33;;;;;;;29.95;13.23;;;;;;;6.81;nan;100990.84;4977266;28;20378;-70
2023/03/02 09:41:11;;;;;;;26.15;12.82;;;;;;;6.92;nan;101000.03;4997110;28;20191;-72
2023/03/02 09:43:55;;;;;;;25.92;12.68;;;;;;;6.95;nan;100997.03;4999387;28;20040;-72
2023/03/02 09:47:02;;;;;;;28.48;13.98;;;;;;;6.93;nan;100982.53;4976105;28;20030;-72
2023/03/02 09:49:45;;;;;;;32.03;14.75;;;;;;;7.06;nan;100995.72;4983732;28;20042;-72
2023/03/02 09:52:16;;;;;;;40.03;17.55;;;;;;;7.12;nan;100995.00;4997602;28;20037;-71
2023/03/02 09:54:42;;;;;;;34.83;16.20;;;;;;;7.15;nan;100997.22;4994480;28;20050;-70
2023/03/02 09:57:24;;;;;;;24.63;13.10;;;;;;;7.18;nan;100983.78;4977532;28;20085;-71
2023/03/02 09:59:55;;;;;;;26.58;12.88;;;;;;;7.23;nan;100973.53;4998336;28;20033;-70
2023/03/02 10:02:45;;;;;;;30.80;13.65;;;;;;;7.34;nan;100981.88;4997359;28;20613;-73
2023/03/02 10:05:20;;;;;;;25.38;13.88;;;;;;;7.38;nan;100983.94;4983525;28;20030;-72
2023/03/02 10:07:47;;;;;;;28.25;14.23;;;;;;;7.45;nan;100992.66;4998590;28;20053;-73
2023/03/02 10:10:38;;;;;;;24.35;13.43;;;;;;;7.55;nan;100999.41;4998207;28;20088;-72
2023/03/02 10:13:30;;;;;;;33.85;14.38;;;;;;;7.62;nan;100995.00;4995046;28;20095;-73
2023/03/02 10:16:14;;;;;;;27.60;13.55;;;;;;;7.66;nan;101004.94;4998291;28;20037;-73
2023/03/02 10:18:42;;;;;;;29.92;13.93;;;;;;;7.71;nan;100998.28;4979114;28;20030;-72
2023/03/02 10:21:28;;;;;;;23.75;13.00;;;;;;;7.75;nan;101000.34;4997097;28;20033;-72
2023/03/02 10:24:03;;;;;;;26.65;13.02;;;;;;;7.79;nan;101000.78;4980519;28;20042;-71
2023/03/02 10:26:34;;;;;;;25.65;12.93;;;;;;;7.81;nan;100996.97;4996135;28;20476;-72
2023/03/02 10:29:08;;;;;;;28.13;13.52;;;;;;;7.84;nan;100996.56;4997042;28;20076;-71
2023/03/02 10:31:39;;;;;;;23.80;12.68;;;;;;;7.90;nan;100997.59;4998520;28;20032;-72
2023/03/02 10:34:10;;;;;;;24.23;13.30;;;;;;;7.95;nan;100995.25;4997623;28;20462;-73
2023/03/02 10:36:46;;;;;;;24.77;13.48;;;;;;;8.00;nan;100994.66;4996341;28;20104;-72
2023/03/02 10:39:14;;;;;;;24.30;13.23;;;;;;;8.04;nan;100990.63;4997719;28;20057;-72
2023/03/02 10:41:48;;;;;;;25.88;13.90;;;;;;;8.08;nan;100997.13;4995804;28;20044;-72
2023/03/02 10:44:21;;;;;;;22.40;11.65;;;;;;;8.13;nan;100993.91;4995865;28;20109;-73
2023/03/02 10:46:46;;;;;;;19.83;12.20;;;;;;;8.10;nan;100982.81;4994228;28;20590;-73
2023/03/02 10:49:32;;;;;;;24.75;12.63;;;;;;;8.17;nan;100993.34;4978935;28;20034;-73
2023/03/02 10:52:08;;;;;;;20.27;10.93;;;;;;;8.19;nan;100986.09;4977873;28;20030;-74
2023/03/02 10:54:35;;;;;;;22.05;11.52;;;;;;;8.15;nan;100974.34;4981006;28;20029;-74
2023/03/02 10:57:04;;;;;;;24.50;12.55;;;;;;;8.16;nan;100975.16;4978279;28;20546;-73
2023/03/02 10:59:48;;;;;;;;;;;;;;;8.24;nan;100983.69;4999400;28;20636;-74
2023/03/02 11:02:21;;;;;;;27.55;11.90;;;;;;;8.26;nan;100976.44;4997899;28;19924;-73
2023/03/02 11:04:46;;;;;;;23.45;11.32;;;;;;;8.26;nan;100975.59;4997649;28;20456;-73
2023/03/02 11:07:21;;;;;;;23.83;11.38;;;;;;;8.26;nan;100976.44;4998637;28;20042;-72
2023/03/02 11:10:17;;;;;;;24.02;11.43;;;;;;;8.24;nan;100964.50;4999547;28;20113;-73
2023/03/02 11:12:49;;;;;;;24.23;12.05;;;;;;;8.32;nan;100972.19;5000412;28;20030;-73
2023/03/02 11:15:17;;;;;;;28.70;14.02;;;;;;;8.36;nan;100975.25;5003849;28;20096;-71
2023/03/02 11:17:45;;;;;;;29.27;13.88;;;;;;;8.34;nan;100964.94;5000876;28;20026;-72
2023/03/02 11:20:23;;;;;;;27.52;13.90;;;;;;;8.46;nan;100975.72;4999605;28;20472;-72
2023/03/02 11:23:13;;;;;;;28.10;13.90;;;;;;;8.48;nan;100969.28;5001091;28;20022;-72
2023/03/02 11:25:50;;;;;;;26.73;13.77;;;;;;;8.51;nan;100952.31;5003075;28;20014;-69
2023/03/02 11:28:31;;;;;;;29.45;13.82;;;;;;;8.60;nan;100964.25;4980924;28;20558;-72
2023/03/02 11:30:59;;;;;;;25.67;13.07;;;;;;;8.62;nan;100943.88;5001644;28;20030;-74
2023/03/02 11:33:34;;;;;;;23.45;12.77;;;;;;;8.79;nan;100956.63;4990983;28;20511;-73
2023/03/02 11:36:14;;;;;;;24.73;13.13;;;;;;;8.63;nan;100929.72;5001966;28;20373;-72
2023/03/02 11:38:50;;;;;;;24.83;12.57;;;;;;;8.54;nan;100927.50;4998247;28;20745;-72
2023/03/02 11:41:26;;;;;;;25.77;13.00;;;;;;;8.64;nan;100954.16;5000597;28;20031;-73
2023/03/02 11:43:58;;;;;;;23.60;12.70;;;;;;;8.56;nan;100938.59;4986346;28;20030;-72
2023/03/02 11:46:31;;;;;;;22.35;12.20;;;;;;;8.73;nan;100945.91;5000902;28;20033;-70
2023/03/02 11:49:04;;;;;;;25.55;13.88;;;;;;;8.63;nan;100934.19;4985034;28;20059;-70
2023/03/02 11:51:35;;;;;;;23.20;12.50;;;;;;;8.75;nan;100947.53;4991844;28;20459;-70